• Join FlightAware (Why Join?)
  • Login
  • US Flag 
02:10PM EST


 

Airport Tracker/Info


-or-


 

Live Flight TrackerFlight Track Log ✈ SWA419 ✈ 25-Apr-2013 ✈ KSJC - KSNA

Flight Track Log - Related Links

Times and Time Zones

All times are in EDT time to prevent confusion due to time zone crossing. See the SWA419 flight status page for this flight to view local times or setup timezone preferences in your user account.

Time Position Orientation Groundspeed Altitude Reporting Facility
EDT Latitude Longitude Course Direction KTS MPH feet Rate Location/Type
12:19AM 37.3667 -121.9333 321° Northwest 145 167 1,100  Level Northern Cal TRACON
12:20AM 37.3878 -121.9547 321° Northwest 162 186 2,100 2,640 Climbing Oakland Center
12:20AM 37.4167 -121.9667 342° North 203 234 3,500 2,100 Climbing Northern Cal TRACON
12:21AM 37.4000 -121.9000 107° East 234 269 5,000 1,620 Climbing Northern Cal TRACON
12:23AM 37.3233 -121.8019 134° Southeast 258 297 7,900 2,220 Climbing Oakland Center
12:24AM 37.2619 -121.7311 137° Southeast 292 336 11,100 2,880 Climbing Oakland Center
12:25AM 37.1669 -121.6264 139° Southeast 377 434 13,900 2,940 Climbing Oakland Center
12:26AM 37.0803 -121.5306 139° Southeast 408 470 17,200 2,940 Climbing Oakland Center
12:27AM 36.9936 -121.4306 137° Southeast 423 487 19,900 2,580 Climbing Oakland Center
12:28AM 36.9014 -121.3289 139° Southeast 440 506 22,500 2,280 Climbing Oakland Center
12:29AM 36.8169 -121.2372 139° Southeast 451 519 24,600 1,980 Climbing Oakland Center
12:30AM 36.7178 -121.1311 139° Southeast 466 536 26,600 2,160 Climbing Oakland Center
12:31AM 36.5958 -121.0011 139° Southeast 482 555 29,100 2,280 Climbing Oakland Center
12:32AM 36.4972 -120.8903 138° Southeast 479 551 31,300 2,040 Climbing Oakland Center
12:33AM 36.4000 -120.7808 138° Southeast 473 544 33,300 1,920 Climbing Oakland Center
12:34AM 36.3019 -120.6753 139° Southeast 467 537 35,300 1,560 Climbing Oakland Center
12:35AM 36.2014 -120.5717 140° Southeast 468 539 36,500 840 Climbing Oakland Center
12:36AM 36.1017 -120.4600 138° Southeast 489 563 37,000 240 Climbing Oakland Center
12:37AM 36.0000 -120.3536 140° Southeast 468 539 37,000  Level Oakland Center
12:38AM 35.8989 -120.2458 139° Southeast 473 544 37,000  Level Oakland Center
12:39AM 35.7969 -120.1381 139° Southeast 478 550 37,000  Level Oakland Center
12:40AM 35.6950 -120.0317 140° Southeast 477 549 37,000 -600 Level Oakland Center
12:41AM 35.5919 -119.9294 141° Southeast 471 542 35,800 -1,020 Descending Oakland Center
12:42AM 35.4769 -119.8425 148° Southeast 477 549 35,000 -840 Descending Oakland Center
12:43AM 35.3611 -119.7581 149° Southeast 479 551 34,100 -780 Descending Oakland Center
12:44AM 35.2469 -119.6775 150° Southeast 473 544 33,500 -540 Descending Oakland Center
12:45AM 35.1325 -119.5931 149° Southeast 476 548 33,100 -480 Descending Oakland Center
12:46AM 35.0178 -119.5117 150° Southeast 476 548 32,600 -480 Descending Oakland Center
12:47AM 34.9050 -119.4281 149° Southeast 472 543 32,200 -480 Descending Oakland Center
12:48AM 34.7908 -119.3458 149° Southeast 476 548 31,700 -720 Descending Oakland Center
12:49AM 34.6542 -119.2478 149° Southeast 474 545 30,800 -840 Descending Oakland Center
12:50AM 34.5381 -119.1639 149° Southeast 481 554 30,000 -1,380 Descending Oakland Center
12:52AM 34.4128 -119.0778 150° Southeast 484 557 27,700 -2,580 Descending Los Angeles Center
12:53AM 34.2769 -118.9819 150° Southeast 474 545 24,200 -3,120 Descending Los Angeles Center
12:54AM 34.1681 -118.9033 149° Southeast 456 525 21,400 -2,760 Descending Los Angeles Center
12:55AM 34.0644 -118.8314 150° Southeast 434 499 18,700 -2,760 Descending Los Angeles Center
12:56AM 33.9636 -118.7592 149° Southeast 418 481 15,800 -2,340 Descending Los Angeles Center
12:57AM 33.8558 -118.6978 155° Southeast 395 455 14,000 -1,140 Descending Los Angeles Center
12:58AM 33.7631 -118.6639 163° South 389 448 13,600 -1,440 Descending Los Angeles Center
12:59AM 33.6606 -118.6289 164° South 388 447 11,100 -1,800 Descending Los Angeles Center
01:00AM 33.5525 -118.5711 156° South 355 409 10,000 -1,080 Descending Los Angeles Center
01:01AM 33.5217 -118.4889 114° Southeast 306 352 8,900 -1,260 Descending Los Angeles Center
01:02AM 33.5278 -118.3933 86° East 294 338 7,500 -1,380 Descending Los Angeles Center
01:03AM 33.5347 -118.3003 85° East 290 334 6,100 -1,260 Descending Los Angeles Center
01:04AM 33.5411 -118.2100 85° East 282 325 5,000 -1,020 Descending Los Angeles Center
01:05AM 33.5750 -118.1347 62° Northeast 273 314 4,100 -1,020 Descending Los Angeles Center
01:06AM 33.6333 -118.0667 44° Northeast 247 284 3,000 -780 Descending Southern California TRACON
01:07AM 33.6833 -118.0167 40° Northeast 214 246 2,600 -540 Descending Southern California TRACON
01:08AM 33.7167 -117.9667 51° Northeast 208 239 2,000 -420 Descending Southern California TRACON
01:09AM 33.7333 -117.9000 73° East 174 200 1,800 -420 Descending Southern California TRACON
01:10AM 33.7167 -117.8667 121° Southeast 144 166 1,200 -780 Descending Southern California TRACON
01:11AM 33.6833 -117.8667 180° South 134 154 300 -900 Descending Southern California TRACON
01:14AM 33.6757 -117.8682 132° Southeast  Level Estimated